sensor_id;sensor_type;location;lat;lon;timestamp;temperature;humidity
12386;DHT22;6257;57.634;18.310;2022-09-09T00:01:04;10.70;99.90
12386;DHT22;6257;57.634;18.310;2022-09-09T00:03:40;10.70;99.90
12386;DHT22;6257;57.634;18.310;2022-09-09T00:06:19;10.70;99.90
12386;DHT22;6257;57.634;18.310;2022-09-09T00:09:00;10.60;99.90
12386;DHT22;6257;57.634;18.310;2022-09-09T00:11:33;10.70;99.90
12386;DHT22;6257;57.634;18.310;2022-09-09T00:14:11;10.70;99.90
12386;DHT22;6257;57.634;18.310;2022-09-09T00:16:41;10.70;99.90
12386;DHT22;6257;57.634;18.310;2022-09-09T00:19:19;10.70;99.90
12386;DHT22;6257;57.634;18.310;2022-09-09T00:21:52;10.60;99.90
12386;DHT22;6257;57.634;18.310;2022-09-09T00:24:27;10.60;99.90
12386;DHT22;6257;57.634;18.310;2022-09-09T00:27:00;10.60;99.90
12386;DHT22;6257;57.634;18.310;2022-09-09T00:29:35;10.60;99.90
12386;DHT22;6257;57.634;18.310;2022-09-09T00:32:12;10.60;99.90
12386;DHT22;6257;57.634;18.310;2022-09-09T00:34:48;10.50;99.90
12386;DHT22;6257;57.634;18.310;2022-09-09T00:37:16;10.60;99.90
12386;DHT22;6257;57.634;18.310;2022-09-09T00:39:46;10.60;99.90
12386;DHT22;6257;57.634;18.310;2022-09-09T00:42:15;10.60;99.90
12386;DHT22;6257;57.634;18.310;2022-09-09T00:44:58;10.60;99.90
12386;DHT22;6257;57.634;18.310;2022-09-09T00:47:39;10.60;99.90
12386;DHT22;6257;57.634;18.310;2022-09-09T00:50:21;10.50;99.90
12386;DHT22;6257;57.634;18.310;2022-09-09T00:52:58;10.50;99.90
12386;DHT22;6257;57.634;18.310;2022-09-09T00:55:36;10.50;99.90
12386;DHT22;6257;57.634;18.310;2022-09-09T00:58:07;10.50;99.90
12386;DHT22;6257;57.634;18.310;2022-09-09T01:00:42;10.50;99.90
12386;DHT22;6257;57.634;18.310;2022-09-09T01:03:21;10.50;99.90
12386;DHT22;6257;57.634;18.310;2022-09-09T01:05:57;10.50;99.90
12386;DHT22;6257;57.634;18.310;2022-09-09T01:11:37;10.40;99.90
12386;DHT22;6257;57.634;18.310;2022-09-09T01:14:16;10.40;99.90
12386;DHT22;6257;57.634;18.310;2022-09-09T01:16:48;10.40;99.90
12386;DHT22;6257;57.634;18.310;2022-09-09T01:19:23;10.40;99.90
12386;DHT22;6257;57.634;18.310;2022-09-09T01:22:00;10.40;99.90
12386;DHT22;6257;57.634;18.310;2022-09-09T01:24:34;10.40;99.90
12386;DHT22;6257;57.634;18.310;2022-09-09T01:27:05;10.40;99.90
12386;DHT22;6257;57.634;18.310;2022-09-09T01:29:33;10.40;99.90
12386;DHT22;6257;57.634;18.310;2022-09-09T01:32:02;10.30;99.90
12386;DHT22;6257;57.634;18.310;2022-09-09T01:34:36;10.30;99.90
12386;DHT22;6257;57.634;18.310;2022-09-09T01:37:06;10.30;99.90
12386;DHT22;6257;57.634;18.310;2022-09-09T01:39:35;10.30;99.90
12386;DHT22;6257;57.634;18.310;2022-09-09T01:42:06;10.30;99.90
12386;DHT22;6257;57.634;18.310;2022-09-09T01:44:34;10.30;99.90
12386;DHT22;6257;57.634;18.310;2022-09-09T01:47:03;10.30;99.90
12386;DHT22;6257;57.634;18.310;2022-09-09T01:49:31;10.30;99.90
12386;DHT22;6257;57.634;18.310;2022-09-09T01:51:58;10.30;99.90
12386;DHT22;6257;57.634;18.310;2022-09-09T01:54:29;10.30;99.90
12386;DHT22;6257;57.634;18.310;2022-09-09T01:57:03;10.30;99.90
12386;DHT22;6257;57.634;18.310;2022-09-09T01:59:48;10.30;99.90
12386;DHT22;6257;57.634;18.310;2022-09-09T02:02:18;10.30;99.90
12386;DHT22;6257;57.634;18.310;2022-09-09T02:04:48;10.30;99.90
12386;DHT22;6257;57.634;18.310;2022-09-09T02:07:25;10.40;99.90
12386;DHT22;6257;57.634;18.310;2022-09-09T02:09:58;10.30;99.90
12386;DHT22;6257;57.634;18.310;2022-09-09T02:12:27;10.40;99.90
12386;DHT22;6257;57.634;18.310;2022-09-09T02:15:02;10.40;99.90
12386;DHT22;6257;57.634;18.310;2022-09-09T02:17:33;10.40;99.90
12386;DHT22;6257;57.634;18.310;2022-09-09T02:20:05;10.40;99.90
12386;DHT22;6257;57.634;18.310;2022-09-09T02:22:34;10.50;99.90
12386;DHT22;6257;57.634;18.310;2022-09-09T02:25:04;10.40;99.90
12386;DHT22;6257;57.634;18.310;2022-09-09T02:27:32;10.40;99.90
12386;DHT22;6257;57.634;18.310;2022-09-09T02:30:01;10.50;99.90
12386;DHT22;6257;57.634;18.310;2022-09-09T02:32:31;10.40;99.90
12386;DHT22;6257;57.634;18.310;2022-09-09T02:35:03;10.40;99.90
12386;DHT22;6257;57.634;18.310;2022-09-09T02:37:36;10.40;99.90
12386;DHT22;6257;57.634;18.310;2022-09-09T02:40:04;10.40;99.90
12386;DHT22;6257;57.634;18.310;2022-09-09T02:42:32;10.40;99.90
12386;DHT22;6257;57.634;18.310;2022-09-09T02:45:07;10.40;99.90
12386;DHT22;6257;57.634;18.310;2022-09-09T02:47:36;10.40;99.90
12386;DHT22;6257;57.634;18.310;2022-09-09T02:50:11;10.40;99.90
12386;DHT22;6257;57.634;18.310;2022-09-09T02:52:49;10.50;99.90
12386;DHT22;6257;57.634;18.310;2022-09-09T02:55:24;10.50;99.90
12386;DHT22;6257;57.634;18.310;2022-09-09T02:57:56;12.30;99.90
12386;DHT22;6257;57.634;18.310;2022-09-09T03:00:26;10.50;99.90
12386;DHT22;6257;57.634;18.310;2022-09-09T03:02:55;10.60;99.90
12386;DHT22;6257;57.634;18.310;2022-09-09T03:05:23;10.60;99.90
12386;DHT22;6257;57.634;18.310;2022-09-09T03:07:50;10.60;99.90
12386;DHT22;6257;57.634;18.310;2022-09-09T03:10:17;10.50;99.90
12386;DHT22;6257;57.634;18.310;2022-09-09T03:12:44;10.60;99.90
12386;DHT22;6257;57.634;18.310;2022-09-09T03:15:11;10.50;99.90
12386;DHT22;6257;57.634;18.310;2022-09-09T03:17:40;10.50;99.90
12386;DHT22;6257;57.634;18.310;2022-09-09T03:20:08;10.60;99.90
12386;DHT22;6257;57.634;18.310;2022-09-09T03:22:35;10.50;99.90
12386;DHT22;6257;57.634;18.310;2022-09-09T03:25:02;10.60;99.90
12386;DHT22;6257;57.634;18.310;2022-09-09T03:27:30;10.60;99.90
12386;DHT22;6257;57.634;18.310;2022-09-09T03:29:57;10.60;99.90
12386;DHT22;6257;57.634;18.310;2022-09-09T03:32:24;10.60;99.90
12386;DHT22;6257;57.634;18.310;2022-09-09T03:34:53;10.60;99.90
12386;DHT22;6257;57.634;18.310;2022-09-09T03:37:20;10.60;99.90
12386;DHT22;6257;57.634;18.310;2022-09-09T03:39:48;10.60;99.90
12386;DHT22;6257;57.634;18.310;2022-09-09T03:42:16;10.60;99.90
12386;DHT22;6257;57.634;18.310;2022-09-09T03:44:44;10.60;99.90
12386;DHT22;6257;57.634;18.310;2022-09-09T03:47:16;10.60;99.90
12386;DHT22;6257;57.634;18.310;2022-09-09T03:49:44;10.60;99.90
12386;DHT22;6257;57.634;18.310;2022-09-09T03:52:12;10.60;99.90
12386;DHT22;6257;57.634;18.310;2022-09-09T03:54:40;10.60;99.90
12386;DHT22;6257;57.634;18.310;2022-09-09T03:57:08;10.70;99.90
12386;DHT22;6257;57.634;18.310;2022-09-09T03:59:35;10.60;99.90
12386;DHT22;6257;57.634;18.310;2022-09-09T04:02:02;10.60;99.90
12386;DHT22;6257;57.634;18.310;2022-09-09T04:04:29;10.60;99.90
12386;DHT22;6257;57.634;18.310;2022-09-09T04:06:56;10.60;99.90
12386;DHT22;6257;57.634;18.310;2022-09-09T04:09:25;10.60;99.90
12386;DHT22;6257;57.634;18.310;2022-09-09T04:11:52;10.60;99.90
12386;DHT22;6257;57.634;18.310;2022-09-09T04:14:20;10.60;99.90
12386;DHT22;6257;57.634;18.310;2022-09-09T04:16:47;10.60;99.90
12386;DHT22;6257;57.634;18.310;2022-09-09T04:19:15;10.60;99.90
12386;DHT22;6257;57.634;18.310;2022-09-09T04:21:42;10.60;99.90
12386;DHT22;6257;57.634;18.310;2022-09-09T04:24:09;10.70;99.90
12386;DHT22;6257;57.634;18.310;2022-09-09T04:26:37;10.60;99.90
12386;DHT22;6257;57.634;18.310;2022-09-09T04:29:05;10.70;99.90
12386;DHT22;6257;57.634;18.310;2022-09-09T04:31:32;10.70;99.90
12386;DHT22;6257;57.634;18.310;2022-09-09T04:34:00;10.70;99.90
12386;DHT22;6257;57.634;18.310;2022-09-09T04:36:31;10.80;99.90
12386;DHT22;6257;57.634;18.310;2022-09-09T04:38:58;10.80;99.90
12386;DHT22;6257;57.634;18.310;2022-09-09T04:41:27;10.90;99.90
12386;DHT22;6257;57.634;18.310;2022-09-09T04:43:55;10.90;99.90
12386;DHT22;6257;57.634;18.310;2022-09-09T04:46:22;11.00;99.90
12386;DHT22;6257;57.634;18.310;2022-09-09T04:48:50;11.00;99.90
12386;DHT22;6257;57.634;18.310;2022-09-09T04:51:18;11.10;99.90
12386;DHT22;6257;57.634;18.310;2022-09-09T04:53:45;11.10;99.90
12386;DHT22;6257;57.634;18.310;2022-09-09T04:56:15;11.20;99.90
12386;DHT22;6257;57.634;18.310;2022-09-09T04:58:42;11.30;99.90
12386;DHT22;6257;57.634;18.310;2022-09-09T05:01:12;11.40;99.90
12386;DHT22;6257;57.634;18.310;2022-09-09T05:03:39;12.00;99.90
12386;DHT22;6257;57.634;18.310;2022-09-09T05:06:08;12.60;99.90
12386;DHT22;6257;57.634;18.310;2022-09-09T05:08:36;13.10;99.90
12386;DHT22;6257;57.634;18.310;2022-09-09T05:11:04;13.30;99.90
12386;DHT22;6257;57.634;18.310;2022-09-09T05:13:38;13.30;99.90
12386;DHT22;6257;57.634;18.310;2022-09-09T05:16:05;13.20;99.90
12386;DHT22;6257;57.634;18.310;2022-09-09T05:18:34;13.00;99.90
12386;DHT22;6257;57.634;18.310;2022-09-09T05:21:01;12.80;99.90
12386;DHT22;6257;57.634;18.310;2022-09-09T05:23:28;12.60;99.90
12386;DHT22;6257;57.634;18.310;2022-09-09T05:25:58;12.60;99.90
12386;DHT22;6257;57.634;18.310;2022-09-09T05:28:25;12.60;99.90
12386;DHT22;6257;57.634;18.310;2022-09-09T05:30:57;12.60;99.90
12386;DHT22;6257;57.634;18.310;2022-09-09T05:33:24;12.60;99.90
12386;DHT22;6257;57.634;18.310;2022-09-09T05:35:58;12.60;99.90
12386;DHT22;6257;57.634;18.310;2022-09-09T05:38:25;12.70;99.90
12386;DHT22;6257;57.634;18.310;2022-09-09T05:40:52;12.70;99.90
12386;DHT22;6257;57.634;18.310;2022-09-09T05:43:20;12.80;99.90
12386;DHT22;6257;57.634;18.310;2022-09-09T05:45:47;12.80;99.90
12386;DHT22;6257;57.634;18.310;2022-09-09T05:48:14;12.90;99.90
12386;DHT22;6257;57.634;18.310;2022-09-09T05:50:42;12.90;99.90
12386;DHT22;6257;57.634;18.310;2022-09-09T05:53:12;13.00;99.90
12386;DHT22;6257;57.634;18.310;2022-09-09T05:55:39;13.10;99.90
12386;DHT22;6257;57.634;18.310;2022-09-09T05:58:06;13.20;99.90
12386;DHT22;6257;57.634;18.310;2022-09-09T06:00:33;13.20;99.90
12386;DHT22;6257;57.634;18.310;2022-09-09T06:03:00;13.30;99.90
12386;DHT22;6257;57.634;18.310;2022-09-09T06:05:26;13.30;99.90
12386;DHT22;6257;57.634;18.310;2022-09-09T06:07:54;13.40;99.90
12386;DHT22;6257;57.634;18.310;2022-09-09T06:10:22;13.40;99.90
12386;DHT22;6257;57.634;18.310;2022-09-09T06:12:52;13.50;99.90
12386;DHT22;6257;57.634;18.310;2022-09-09T06:15:19;13.50;99.90
12386;DHT22;6257;57.634;18.310;2022-09-09T06:17:46;13.50;99.90
12386;DHT22;6257;57.634;18.310;2022-09-09T06:20:15;13.60;99.90
12386;DHT22;6257;57.634;18.310;2022-09-09T06:22:42;13.60;99.90
12386;DHT22;6257;57.634;18.310;2022-09-09T06:25:11;13.70;99.90
12386;DHT22;6257;57.634;18.310;2022-09-09T06:27:40;13.70;99.90
12386;DHT22;6257;57.634;18.310;2022-09-09T06:30:08;13.70;99.90
12386;DHT22;6257;57.634;18.310;2022-09-09T06:32:36;13.80;99.90
12386;DHT22;6257;57.634;18.310;2022-09-09T06:35:05;13.80;99.90
12386;DHT22;6257;57.634;18.310;2022-09-09T06:37:33;13.80;99.90
12386;DHT22;6257;57.634;18.310;2022-09-09T06:40:00;13.80;99.90
12386;DHT22;6257;57.634;18.310;2022-09-09T06:42:27;13.90;99.90
12386;DHT22;6257;57.634;18.310;2022-09-09T06:44:55;13.90;99.90
12386;DHT22;6257;57.634;18.310;2022-09-09T06:47:22;12.50;99.90
12386;DHT22;6257;57.634;18.310;2022-09-09T06:49:50;14.00;99.90
12386;DHT22;6257;57.634;18.310;2022-09-09T06:52:17;14.00;99.90
12386;DHT22;6257;57.634;18.310;2022-09-09T06:54:44;14.00;99.90
12386;DHT22;6257;57.634;18.310;2022-09-09T06:57:14;14.00;99.90
12386;DHT22;6257;57.634;18.310;2022-09-09T06:59:41;14.00;99.90
12386;DHT22;6257;57.634;18.310;2022-09-09T07:02:10;14.00;99.90
12386;DHT22;6257;57.634;18.310;2022-09-09T07:04:37;14.00;99.90
12386;DHT22;6257;57.634;18.310;2022-09-09T07:07:04;14.00;99.90
12386;DHT22;6257;57.634;18.310;2022-09-09T07:09:31;14.10;99.90
12386;DHT22;6257;57.634;18.310;2022-09-09T07:11:59;14.10;99.90
12386;DHT22;6257;57.634;18.310;2022-09-09T07:14:26;14.20;99.90
12386;DHT22;6257;57.634;18.310;2022-09-09T07:16:53;14.20;99.90
12386;DHT22;6257;57.634;18.310;2022-09-09T07:19:22;14.20;99.90
12386;DHT22;6257;57.634;18.310;2022-09-09T07:21:49;14.20;99.90
12386;DHT22;6257;57.634;18.310;2022-09-09T07:24:16;14.30;99.90
12386;DHT22;6257;57.634;18.310;2022-09-09T07:26:43;14.30;99.90
12386;DHT22;6257;57.634;18.310;2022-09-09T07:29:11;14.40;99.90
12386;DHT22;6257;57.634;18.310;2022-09-09T07:31:39;14.50;99.90
12386;DHT22;6257;57.634;18.310;2022-09-09T07:34:07;14.60;99.90
12386;DHT22;6257;57.634;18.310;2022-09-09T07:36:36;14.60;99.90
12386;DHT22;6257;57.634;18.310;2022-09-09T07:39:07;14.70;99.90
12386;DHT22;6257;57.634;18.310;2022-09-09T07:41:36;14.70;99.90
12386;DHT22;6257;57.634;18.310;2022-09-09T07:44:05;14.90;99.90
12386;DHT22;6257;57.634;18.310;2022-09-09T07:46:33;15.00;99.90
12386;DHT22;6257;57.634;18.310;2022-09-09T07:49:00;15.10;99.90
12386;DHT22;6257;57.634;18.310;2022-09-09T07:51:29;15.20;99.90
12386;DHT22;6257;57.634;18.310;2022-09-09T07:54:00;15.30;99.90
12386;DHT22;6257;57.634;18.310;2022-09-09T07:56:28;15.40;99.90
12386;DHT22;6257;57.634;18.310;2022-09-09T07:58:56;15.50;99.90
12386;DHT22;6257;57.634;18.310;2022-09-09T08:01:25;15.60;99.90
12386;DHT22;6257;57.634;18.310;2022-09-09T08:03:54;15.60;99.90
12386;DHT22;6257;57.634;18.310;2022-09-09T08:06:22;15.90;99.90
12386;DHT22;6257;57.634;18.310;2022-09-09T08:08:51;16.10;99.90
12386;DHT22;6257;57.634;18.310;2022-09-09T08:11:21;16.30;99.90
12386;DHT22;6257;57.634;18.310;2022-09-09T08:13:50;16.50;99.90
12386;DHT22;6257;57.634;18.310;2022-09-09T08:16:19;16.80;99.90
12386;DHT22;6257;57.634;18.310;2022-09-09T08:18:47;17.00;99.90
12386;DHT22;6257;57.634;18.310;2022-09-09T08:21:16;17.10;99.90
12386;DHT22;6257;57.634;18.310;2022-09-09T08:23:45;17.20;99.90
12386;DHT22;6257;57.634;18.310;2022-09-09T08:26:15;17.50;99.90
12386;DHT22;6257;57.634;18.310;2022-09-09T08:28:43;17.90;99.90
12386;DHT22;6257;57.634;18.310;2022-09-09T08:31:13;18.20;99.90
12386;DHT22;6257;57.634;18.310;2022-09-09T08:33:40;18.70;99.90
12386;DHT22;6257;57.634;18.310;2022-09-09T08:36:10;19.00;99.90
12386;DHT22;6257;57.634;18.310;2022-09-09T08:38:37;19.60;99.90
12386;DHT22;6257;57.634;18.310;2022-09-09T08:44:13;19.30;99.90
12386;DHT22;6257;57.634;18.310;2022-09-09T08:46:47;18.10;99.90
12386;DHT22;6257;57.634;18.310;2022-09-09T08:49:24;17.30;99.90
12386;DHT22;6257;57.634;18.310;2022-09-09T08:51:57;17.10;99.90
12386;DHT22;6257;57.634;18.310;2022-09-09T08:54:29;16.90;99.90
12386;DHT22;6257;57.634;18.310;2022-09-09T08:56:59;16.80;99.90
12386;DHT22;6257;57.634;18.310;2022-09-09T08:59:27;16.80;99.90
12386;DHT22;6257;57.634;18.310;2022-09-09T09:02:01;16.80;99.90
12386;DHT22;6257;57.634;18.310;2022-09-09T09:04:38;16.80;99.90
12386;DHT22;6257;57.634;18.310;2022-09-09T09:07:18;16.70;99.90
12386;DHT22;6257;57.634;18.310;2022-09-09T09:09:56;16.60;99.90
12386;DHT22;6257;57.634;18.310;2022-09-09T09:12:27;16.60;99.90
12386;DHT22;6257;57.634;18.310;2022-09-09T09:14:59;16.70;99.90
12386;DHT22;6257;57.634;18.310;2022-09-09T09:17:28;16.70;99.90
12386;DHT22;6257;57.634;18.310;2022-09-09T09:19:58;16.70;99.90
12386;DHT22;6257;57.634;18.310;2022-09-09T09:22:32;16.70;99.90
12386;DHT22;6257;57.634;18.310;2022-09-09T09:25:08;16.80;99.90
12386;DHT22;6257;57.634;18.310;2022-09-09T09:27:43;16.80;99.90
12386;DHT22;6257;57.634;18.310;2022-09-09T09:30:17;17.00;99.90
12386;DHT22;6257;57.634;18.310;2022-09-09T09:32:52;16.80;99.90
12386;DHT22;6257;57.634;18.310;2022-09-09T09:35:20;17.00;99.90
12386;DHT22;6257;57.634;18.310;2022-09-09T09:37:47;17.00;99.90
12386;DHT22;6257;57.634;18.310;2022-09-09T09:40:16;17.00;99.90
12386;DHT22;6257;57.634;18.310;2022-09-09T09:42:49;17.00;99.90
12386;DHT22;6257;57.634;18.310;2022-09-09T09:45:26;16.90;99.90
12386;DHT22;6257;57.634;18.310;2022-09-09T09:47:59;16.90;99.90
12386;DHT22;6257;57.634;18.310;2022-09-09T09:50:28;16.90;99.90
12386;DHT22;6257;57.634;18.310;2022-09-09T09:52:55;17.00;99.90
12386;DHT22;6257;57.634;18.310;2022-09-09T09:55:23;17.10;99.90
12386;DHT22;6257;57.634;18.310;2022-09-09T09:57:51;17.10;99.90
12386;DHT22;6257;57.634;18.310;2022-09-09T10:00:21;17.00;99.90
12386;DHT22;6257;57.634;18.310;2022-09-09T10:02:49;17.00;99.90
12386;DHT22;6257;57.634;18.310;2022-09-09T10:05:19;17.00;99.90
12386;DHT22;6257;57.634;18.310;2022-09-09T10:07:57;17.00;99.90
12386;DHT22;6257;57.634;18.310;2022-09-09T10:10:32;17.00;99.90
12386;DHT22;6257;57.634;18.310;2022-09-09T10:13:05;17.10;99.90
12386;DHT22;6257;57.634;18.310;2022-09-09T10:15:42;17.10;99.90
12386;DHT22;6257;57.634;18.310;2022-09-09T10:18:30;17.00;99.90
12386;DHT22;6257;57.634;18.310;2022-09-09T10:21:08;17.00;99.90
12386;DHT22;6257;57.634;18.310;2022-09-09T10:24:01;17.00;99.90
12386;DHT22;6257;57.634;18.310;2022-09-09T10:26:39;17.00;99.90
12386;DHT22;6257;57.634;18.310;2022-09-09T10:29:24;17.00;99.90
12386;DHT22;6257;57.634;18.310;2022-09-09T10:32:03;17.10;99.90
12386;DHT22;6257;57.634;18.310;2022-09-09T10:34:49;17.20;99.90
12386;DHT22;6257;57.634;18.310;2022-09-09T10:37:30;17.20;99.90
12386;DHT22;6257;57.634;18.310;2022-09-09T10:40:05;17.10;99.90
12386;DHT22;6257;57.634;18.310;2022-09-09T10:42:38;17.10;99.90
12386;DHT22;6257;57.634;18.310;2022-09-09T10:45:15;17.20;99.90
12386;DHT22;6257;57.634;18.310;2022-09-09T10:48:04;17.20;99.90
12386;DHT22;6257;57.634;18.310;2022-09-09T10:50:42;17.00;99.90
12386;DHT22;6257;57.634;18.310;2022-09-09T10:53:22;17.00;99.90
12386;DHT22;6257;57.634;18.310;2022-09-09T10:55:56;17.10;99.90
12386;DHT22;6257;57.634;18.310;2022-09-09T10:58:28;17.10;99.90
12386;DHT22;6257;57.634;18.310;2022-09-09T11:01:01;17.10;99.90
12386;DHT22;6257;57.634;18.310;2022-09-09T11:03:35;17.10;99.90
12386;DHT22;6257;57.634;18.310;2022-09-09T11:06:09;17.10;99.90
12386;DHT22;6257;57.634;18.310;2022-09-09T11:08:39;17.20;99.90
12386;DHT22;6257;57.634;18.310;2022-09-09T11:11:10;17.20;99.90
12386;DHT22;6257;57.634;18.310;2022-09-09T11:13:44;17.20;99.90
12386;DHT22;6257;57.634;18.310;2022-09-09T11:16:20;17.10;99.90
12386;DHT22;6257;57.634;18.310;2022-09-09T11:18:50;17.10;99.90
12386;DHT22;6257;57.634;18.310;2022-09-09T11:21:24;17.10;99.90
12386;DHT22;6257;57.634;18.310;2022-09-09T11:23:56;17.10;99.90
12386;DHT22;6257;57.634;18.310;2022-09-09T11:26:30;17.10;99.90
12386;DHT22;6257;57.634;18.310;2022-09-09T11:32:00;17.00;99.90
12386;DHT22;6257;57.634;18.310;2022-09-09T11:34:39;17.10;99.90
12386;DHT22;6257;57.634;18.310;2022-09-09T11:37:29;17.10;99.90
12386;DHT22;6257;57.634;18.310;2022-09-09T11:40:17;17.10;99.90
12386;DHT22;6257;57.634;18.310;2022-09-09T11:42:46;17.00;99.90
12386;DHT22;6257;57.634;18.310;2022-09-09T11:45:23;17.00;99.90
12386;DHT22;6257;57.634;18.310;2022-09-09T11:47:52;16.90;99.90
12386;DHT22;6257;57.634;18.310;2022-09-09T11:50:35;16.90;99.90
12386;DHT22;6257;57.634;18.310;2022-09-09T11:53:21;16.80;99.90
12386;DHT22;6257;57.634;18.310;2022-09-09T11:56:24;16.80;99.90
12386;DHT22;6257;57.634;18.310;2022-09-09T11:58:56;16.60;99.90
12386;DHT22;6257;57.634;18.310;2022-09-09T12:01:35;16.60;99.90
12386;DHT22;6257;57.634;18.310;2022-09-09T12:04:21;16.60;99.90
12386;DHT22;6257;57.634;18.310;2022-09-09T12:06:58;16.60;99.90
12386;DHT22;6257;57.634;18.310;2022-09-09T12:09:31;16.70;99.90
12386;DHT22;6257;57.634;18.310;2022-09-09T12:12:06;16.80;99.90
12386;DHT22;6257;57.634;18.310;2022-09-09T12:14:42;16.80;99.90
12386;DHT22;6257;57.634;18.310;2022-09-09T12:17:18;16.70;99.90
12386;DHT22;6257;57.634;18.310;2022-09-09T12:19:46;16.70;99.90
12386;DHT22;6257;57.634;18.310;2022-09-09T12:22:24;16.60;99.90
12386;DHT22;6257;57.634;18.310;2022-09-09T12:24:58;16.60;99.90
12386;DHT22;6257;57.634;18.310;2022-09-09T12:27:31;16.60;99.90
12386;DHT22;6257;57.634;18.310;2022-09-09T12:30:03;16.50;99.90
12386;DHT22;6257;57.634;18.310;2022-09-09T12:32:32;16.50;99.90
12386;DHT22;6257;57.634;18.310;2022-09-09T12:35:02;16.60;99.90
12386;DHT22;6257;57.634;18.310;2022-09-09T12:37:35;16.60;99.90
12386;DHT22;6257;57.634;18.310;2022-09-09T12:40:04;16.60;99.90
12386;DHT22;6257;57.634;18.310;2022-09-09T12:42:32;16.60;99.90
12386;DHT22;6257;57.634;18.310;2022-09-09T12:45:00;16.60;99.90
12386;DHT22;6257;57.634;18.310;2022-09-09T12:47:37;16.70;99.90
12386;DHT22;6257;57.634;18.310;2022-09-09T12:50:16;16.70;99.90
12386;DHT22;6257;57.634;18.310;2022-09-09T12:52:46;16.70;99.90
12386;DHT22;6257;57.634;18.310;2022-09-09T12:55:18;16.60;99.90
12386;DHT22;6257;57.634;18.310;2022-09-09T12:57:48;16.70;99.90
12386;DHT22;6257;57.634;18.310;2022-09-09T13:00:19;16.70;99.90
12386;DHT22;6257;57.634;18.310;2022-09-09T13:02:50;16.70;99.90
12386;DHT22;6257;57.634;18.310;2022-09-09T13:05:20;16.70;99.90
12386;DHT22;6257;57.634;18.310;2022-09-09T13:07:49;16.70;99.90
12386;DHT22;6257;57.634;18.310;2022-09-09T13:10:23;16.80;99.90
12386;DHT22;6257;57.634;18.310;2022-09-09T13:12:52;16.80;99.90
12386;DHT22;6257;57.634;18.310;2022-09-09T13:15:21;16.80;99.90
12386;DHT22;6257;57.634;18.310;2022-09-09T13:17:52;16.80;99.90
12386;DHT22;6257;57.634;18.310;2022-09-09T13:20:20;16.90;99.90
12386;DHT22;6257;57.634;18.310;2022-09-09T13:22:49;16.80;99.90
12386;DHT22;6257;57.634;18.310;2022-09-09T13:25:21;16.80;99.90
12386;DHT22;6257;57.634;18.310;2022-09-09T13:27:59;16.80;99.90
12386;DHT22;6257;57.634;18.310;2022-09-09T13:30:29;16.80;99.90
12386;DHT22;6257;57.634;18.310;2022-09-09T13:33:06;16.80;99.90
12386;DHT22;6257;57.634;18.310;2022-09-09T13:35:47;16.80;99.90
12386;DHT22;6257;57.634;18.310;2022-09-09T13:38:17;16.70;99.90
12386;DHT22;6257;57.634;18.310;2022-09-09T13:40:57;16.70;99.90
12386;DHT22;6257;57.634;18.310;2022-09-09T13:43:28;16.70;99.90
12386;DHT22;6257;57.634;18.310;2022-09-09T13:45:56;16.70;99.90
12386;DHT22;6257;57.634;18.310;2022-09-09T13:48:24;16.70;99.90
12386;DHT22;6257;57.634;18.310;2022-09-09T13:50:56;16.60;99.90
12386;DHT22;6257;57.634;18.310;2022-09-09T13:53:25;16.60;99.90
12386;DHT22;6257;57.634;18.310;2022-09-09T13:55:53;16.50;99.90
12386;DHT22;6257;57.634;18.310;2022-09-09T13:58:20;16.60;99.90
12386;DHT22;6257;57.634;18.310;2022-09-09T14:00:48;16.60;99.90
12386;DHT22;6257;57.634;18.310;2022-09-09T14:03:16;16.50;99.90
12386;DHT22;6257;57.634;18.310;2022-09-09T14:05:44;16.40;99.90
12386;DHT22;6257;57.634;18.310;2022-09-09T14:08:23;16.40;99.90
12386;DHT22;6257;57.634;18.310;2022-09-09T14:10:52;16.30;99.90
12386;DHT22;6257;57.634;18.310;2022-09-09T14:13:21;16.40;99.90
12386;DHT22;6257;57.634;18.310;2022-09-09T14:15:49;16.30;99.90
12386;DHT22;6257;57.634;18.310;2022-09-09T14:18:16;16.30;99.90
12386;DHT22;6257;57.634;18.310;2022-09-09T14:20:44;16.30;99.90
12386;DHT22;6257;57.634;18.310;2022-09-09T14:23:11;16.40;99.90
12386;DHT22;6257;57.634;18.310;2022-09-09T14:25:40;16.40;99.90
12386;DHT22;6257;57.634;18.310;2022-09-09T14:28:11;16.40;99.90
12386;DHT22;6257;57.634;18.310;2022-09-09T14:30:39;16.30;99.90
12386;DHT22;6257;57.634;18.310;2022-09-09T14:33:07;16.30;99.90
12386;DHT22;6257;57.634;18.310;2022-09-09T14:35:34;16.20;99.90
12386;DHT22;6257;57.634;18.310;2022-09-09T14:38:02;16.20;99.90
12386;DHT22;6257;57.634;18.310;2022-09-09T14:40:29;16.20;99.90
12386;DHT22;6257;57.634;18.310;2022-09-09T14:42:56;16.20;99.90
12386;DHT22;6257;57.634;18.310;2022-09-09T14:45:25;16.30;99.90
12386;DHT22;6257;57.634;18.310;2022-09-09T14:47:52;16.30;99.90
12386;DHT22;6257;57.634;18.310;2022-09-09T14:50:20;16.20;99.90
12386;DHT22;6257;57.634;18.310;2022-09-09T14:52:48;16.10;99.90
12386;DHT22;6257;57.634;18.310;2022-09-09T14:55:16;16.00;99.90
12386;DHT22;6257;57.634;18.310;2022-09-09T14:57:43;16.00;99.90
12386;DHT22;6257;57.634;18.310;2022-09-09T15:00:11;16.00;99.90
12386;DHT22;6257;57.634;18.310;2022-09-09T15:02:40;15.90;99.90
12386;DHT22;6257;57.634;18.310;2022-09-09T15:05:07;15.90;99.90
12386;DHT22;6257;57.634;18.310;2022-09-09T15:07:35;15.90;99.90
12386;DHT22;6257;57.634;18.310;2022-09-09T15:10:02;15.80;99.90
12386;DHT22;6257;57.634;18.310;2022-09-09T15:12:30;15.90;99.90
12386;DHT22;6257;57.634;18.310;2022-09-09T15:14:57;15.80;99.90
12386;DHT22;6257;57.634;18.310;2022-09-09T15:17:24;15.90;99.90
12386;DHT22;6257;57.634;18.310;2022-09-09T15:19:53;15.80;99.90
12386;DHT22;6257;57.634;18.310;2022-09-09T15:22:20;15.80;99.90
12386;DHT22;6257;57.634;18.310;2022-09-09T15:24:48;15.70;99.90
12386;DHT22;6257;57.634;18.310;2022-09-09T15:27:15;15.60;99.90
12386;DHT22;6257;57.634;18.310;2022-09-09T15:29:43;15.50;99.90
12386;DHT22;6257;57.634;18.310;2022-09-09T15:32:12;15.40;99.90
12386;DHT22;6257;57.634;18.310;2022-09-09T15:34:39;15.40;99.90
12386;DHT22;6257;57.634;18.310;2022-09-09T15:37:09;14.50;99.90
12386;DHT22;6257;57.634;18.310;2022-09-09T15:39:38;15.20;99.90
12386;DHT22;6257;57.634;18.310;2022-09-09T15:42:06;15.20;99.90
12386;DHT22;6257;57.634;18.310;2022-09-09T15:44:39;15.10;99.90
12386;DHT22;6257;57.634;18.310;2022-09-09T15:47:07;15.00;99.90
12386;DHT22;6257;57.634;18.310;2022-09-09T15:49:37;15.00;99.90
12386;DHT22;6257;57.634;18.310;2022-09-09T15:52:05;14.90;99.90
12386;DHT22;6257;57.634;18.310;2022-09-09T15:54:34;14.90;99.90
12386;DHT22;6257;57.634;18.310;2022-09-09T15:57:06;14.90;99.90
12386;DHT22;6257;57.634;18.310;2022-09-09T15:59:34;14.80;99.90
12386;DHT22;6257;57.634;18.310;2022-09-09T16:02:01;14.70;99.90